sensor_id;sensor_type;location;lat;lon;timestamp;pressure;altitude;pressure_sealevel;temperature;humidity
1371;BME280;14306;49.942;11.570;2023-03-03T00:00:46;97779.19;;;1.13;75.05
1371;BME280;14306;49.942;11.570;2023-03-03T00:03:17;97778.38;;;1.13;75.03
1371;BME280;14306;49.942;11.570;2023-03-03T00:05:46;97776.19;;;1.10;75.80
1371;BME280;14306;49.942;11.570;2023-03-03T00:08:18;97768.06;;;1.05;75.60
1371;BME280;14306;49.942;11.570;2023-03-03T00:10:47;97777.75;;;0.83;75.72
1371;BME280;14306;49.942;11.570;2023-03-03T00:13:17;97773.44;;;0.82;76.49
1371;BME280;14306;49.942;11.570;2023-03-03T00:15:46;97787.00;;;0.80;75.84
1371;BME280;14306;49.942;11.570;2023-03-03T00:18:24;97778.41;;;0.90;76.01
1371;BME280;14306;49.942;11.570;2023-03-03T00:20:54;97778.53;;;0.60;76.83
1371;BME280;14306;49.942;11.570;2023-03-03T00:23:30;97791.31;;;0.58;77.46
1371;BME280;14306;49.942;11.570;2023-03-03T00:25:58;97792.81;;;0.54;78.14
1371;BME280;14306;49.942;11.570;2023-03-03T00:28:28;97795.94;;;0.51;78.06
1371;BME280;14306;49.942;11.570;2023-03-03T00:30:59;97794.28;;;0.39;78.24
1371;BME280;14306;49.942;11.570;2023-03-03T00:33:30;97795.91;;;0.28;77.72
1371;BME280;14306;49.942;11.570;2023-03-03T00:36:22;97800.88;;;0.36;77.98
1371;BME280;14306;49.942;11.570;2023-03-03T00:38:59;97792.63;;;0.26;78.63
1371;BME280;14306;49.942;11.570;2023-03-03T00:41:39;97794.75;;;0.36;79.40
1371;BME280;14306;49.942;11.570;2023-03-03T00:44:38;97792.56;;;0.33;78.87
1371;BME280;14306;49.942;11.570;2023-03-03T00:47:22;97807.59;;;0.27;78.96
1371;BME280;14306;49.942;11.570;2023-03-03T00:49:52;97801.44;;;0.38;79.19
1371;BME280;14306;49.942;11.570;2023-03-03T00:52:23;97801.81;;;0.42;79.66
1371;BME280;14306;49.942;11.570;2023-03-03T00:54:56;97805.72;;;0.28;78.63
1371;BME280;14306;49.942;11.570;2023-03-03T00:57:25;97808.88;;;0.36;79.45
1371;BME280;14306;49.942;11.570;2023-03-03T00:59:53;97790.34;;;0.30;79.03
1371;BME280;14306;49.942;11.570;2023-03-03T01:02:22;97801.13;;;0.35;79.26
1371;BME280;14306;49.942;11.570;2023-03-03T01:04:52;97802.84;;;0.29;80.10
1371;BME280;14306;49.942;11.570;2023-03-03T01:07:23;97792.41;;;0.16;79.25
1371;BME280;14306;49.942;11.570;2023-03-03T01:09:51;97798.44;;;0.35;79.64
1371;BME280;14306;49.942;11.570;2023-03-03T01:12:22;97766.00;;;0.15;79.77
1371;BME280;14306;49.942;11.570;2023-03-03T01:14:51;97792.75;;;0.20;79.78
1371;BME280;14306;49.942;11.570;2023-03-03T01:17:21;97794.13;;;0.22;79.81
1371;BME280;14306;49.942;11.570;2023-03-03T01:19:49;97791.94;;;0.19;79.17
1371;BME280;14306;49.942;11.570;2023-03-03T01:22:18;97791.38;;;0.17;79.79
1371;BME280;14306;49.942;11.570;2023-03-03T01:24:50;97785.31;;;0.10;79.79
1371;BME280;14306;49.942;11.570;2023-03-03T01:27:18;97779.56;;;0.13;80.06
1371;BME280;14306;49.942;11.570;2023-03-03T01:29:49;97777.22;;;0.05;80.38
1371;BME280;14306;49.942;11.570;2023-03-03T01:32:18;97786.72;;;0.13;80.07
1371;BME280;14306;49.942;11.570;2023-03-03T01:34:48;97772.22;;;-0.03;80.25
1371;BME280;14306;49.942;11.570;2023-03-03T01:37:16;97779.38;;;-0.15;80.27
1371;BME280;14306;49.942;11.570;2023-03-03T01:39:47;97773.56;;;-0.24;80.71
1371;BME280;14306;49.942;11.570;2023-03-03T01:42:16;97772.88;;;-0.19;80.61
1371;BME280;14306;49.942;11.570;2023-03-03T01:44:46;97773.69;;;-0.19;80.85
1371;BME280;14306;49.942;11.570;2023-03-03T01:47:16;97767.47;;;-0.13;80.71
1371;BME280;14306;49.942;11.570;2023-03-03T01:49:50;97776.47;;;-0.14;81.52
1371;BME280;14306;49.942;11.570;2023-03-03T01:52:25;97748.41;;;-0.39;81.56
1371;BME280;14306;49.942;11.570;2023-03-03T01:55:00;97786.47;;;-0.27;81.03
1371;BME280;14306;49.942;11.570;2023-03-03T01:57:31;97760.31;;;-0.42;81.26
1371;BME280;14306;49.942;11.570;2023-03-03T02:00:01;97776.22;;;-0.24;80.83
1371;BME280;14306;49.942;11.570;2023-03-03T02:02:31;97785.63;;;-0.10;82.93
1371;BME280;14306;49.942;11.570;2023-03-03T02:04:59;97775.91;;;-0.16;82.46
1371;BME280;14306;49.942;11.570;2023-03-03T02:07:29;97780.00;;;-0.02;81.64
1371;BME280;14306;49.942;11.570;2023-03-03T02:10:03;97774.63;;;-0.13;81.59
1371;BME280;14306;49.942;11.570;2023-03-03T02:12:35;97771.06;;;-0.07;82.25
1371;BME280;14306;49.942;11.570;2023-03-03T02:15:15;97750.84;;;-0.38;82.26
1371;BME280;14306;49.942;11.570;2023-03-03T02:17:46;97776.53;;;-0.32;82.39
1371;BME280;14306;49.942;11.570;2023-03-03T02:20:18;97776.31;;;-0.30;83.06
1371;BME280;14306;49.942;11.570;2023-03-03T02:22:54;97769.03;;;-0.23;83.36
1371;BME280;14306;49.942;11.570;2023-03-03T02:25:30;97747.84;;;-0.30;83.59
1371;BME280;14306;49.942;11.570;2023-03-03T02:28:02;97771.97;;;-0.13;83.17
1371;BME280;14306;49.942;11.570;2023-03-03T02:30:36;97768.91;;;-0.28;82.63
1371;BME280;14306;49.942;11.570;2023-03-03T02:33:06;97758.94;;;-0.33;83.22
1371;BME280;14306;49.942;11.570;2023-03-03T02:35:36;97776.66;;;-0.27;83.08
1371;BME280;14306;49.942;11.570;2023-03-03T02:38:18;97771.75;;;-0.41;82.39
1371;BME280;14306;49.942;11.570;2023-03-03T02:40:55;97770.22;;;-0.49;83.32
1371;BME280;14306;49.942;11.570;2023-03-03T02:43:32;97777.19;;;-0.48;83.95
1371;BME280;14306;49.942;11.570;2023-03-03T02:46:03;97784.19;;;-0.53;83.42
1371;BME280;14306;49.942;11.570;2023-03-03T02:48:31;97784.00;;;-0.40;84.33
1371;BME280;14306;49.942;11.570;2023-03-03T02:50:59;97784.88;;;-0.28;84.37
1371;BME280;14306;49.942;11.570;2023-03-03T02:53:28;97778.66;;;-0.22;84.38
1371;BME280;14306;49.942;11.570;2023-03-03T02:55:56;97777.38;;;-0.20;84.59
1371;BME280;14306;49.942;11.570;2023-03-03T02:58:24;97793.63;;;-0.10;84.04
1371;BME280;14306;49.942;11.570;2023-03-03T03:00:54;97776.22;;;-0.24;84.47
1371;BME280;14306;49.942;11.570;2023-03-03T03:03:22;97792.19;;;-0.24;84.84
1371;BME280;14306;49.942;11.570;2023-03-03T03:05:51;97794.97;;;-0.19;84.69
1371;BME280;14306;49.942;11.570;2023-03-03T03:08:19;97792.47;;;-0.02;84.81
1371;BME280;14306;49.942;11.570;2023-03-03T03:10:47;97786.81;;;0.06;85.02
1371;BME280;14306;49.942;11.570;2023-03-03T03:13:15;97781.56;;;-0.12;85.23
1371;BME280;14306;49.942;11.570;2023-03-03T03:15:45;97790.41;;;0.00;85.09
1371;BME280;14306;49.942;11.570;2023-03-03T03:18:15;97788.34;;;0.14;84.77
1371;BME280;14306;49.942;11.570;2023-03-03T03:20:44;97796.97;;;-0.03;84.48
1371;BME280;14306;49.942;11.570;2023-03-03T03:23:14;97751.34;;;-0.29;84.68
1371;BME280;14306;49.942;11.570;2023-03-03T03:25:43;97768.97;;;-0.05;84.90
1371;BME280;14306;49.942;11.570;2023-03-03T03:28:13;97798.84;;;-0.03;84.89
1371;BME280;14306;49.942;11.570;2023-03-03T03:30:42;97780.94;;;0.04;85.20
1371;BME280;14306;49.942;11.570;2023-03-03T03:33:12;97781.38;;;0.01;84.88
1371;BME280;14306;49.942;11.570;2023-03-03T03:35:41;97797.56;;;-0.01;85.00
1371;BME280;14306;49.942;11.570;2023-03-03T03:38:11;97776.47;;;-0.14;84.69
1371;BME280;14306;49.942;11.570;2023-03-03T03:40:40;97788.91;;;-0.26;84.62
1371;BME280;14306;49.942;11.570;2023-03-03T03:43:08;97735.63;;;-0.49;85.56
1371;BME280;14306;49.942;11.570;2023-03-03T03:45:37;97782.34;;;-0.23;84.75
1371;BME280;14306;49.942;11.570;2023-03-03T03:48:05;97799.16;;;-0.11;85.25
1371;BME280;14306;49.942;11.570;2023-03-03T03:50:33;97782.06;;;-0.04;85.40
1371;BME280;14306;49.942;11.570;2023-03-03T03:53:04;97780.88;;;-0.19;85.14
1371;BME280;14306;49.942;11.570;2023-03-03T03:55:32;97794.91;;;-0.01;84.74
1371;BME280;14306;49.942;11.570;2023-03-03T03:58:01;97802.78;;;-0.06;84.66
1371;BME280;14306;49.942;11.570;2023-03-03T04:00:30;97773.88;;;-0.32;85.41
1371;BME280;14306;49.942;11.570;2023-03-03T04:02:58;97787.44;;;-0.22;85.00
1371;BME280;14306;49.942;11.570;2023-03-03T04:05:27;97790.91;;;-0.21;86.52
1371;BME280;14306;49.942;11.570;2023-03-03T04:07:55;97802.31;;;-0.32;85.93
1371;BME280;14306;49.942;11.570;2023-03-03T04:10:24;97816.34;;;-0.25;85.95
1371;BME280;14306;49.942;11.570;2023-03-03T04:12:52;97801.97;;;-0.36;85.75
1371;BME280;14306;49.942;11.570;2023-03-03T04:15:20;97809.81;;;-0.11;85.92
1371;BME280;14306;49.942;11.570;2023-03-03T04:17:49;97814.75;;;-0.15;85.88
1371;BME280;14306;49.942;11.570;2023-03-03T04:20:17;97803.31;;;-0.15;86.17
1371;BME280;14306;49.942;11.570;2023-03-03T04:22:46;97815.03;;;-0.05;86.11
1371;BME280;14306;49.942;11.570;2023-03-03T04:25:16;97813.75;;;-0.02;85.79
1371;BME280;14306;49.942;11.570;2023-03-03T04:27:46;97801.00;;;-0.12;85.95
1371;BME280;14306;49.942;11.570;2023-03-03T04:30:14;97790.97;;;-0.10;86.07
1371;BME280;14306;49.942;11.570;2023-03-03T04:32:42;97802.91;;;-0.01;86.53
1371;BME280;14306;49.942;11.570;2023-03-03T04:35:12;97805.00;;;0.09;86.05
1371;BME280;14306;49.942;11.570;2023-03-03T04:37:40;97809.50;;;0.08;86.63
1371;BME280;14306;49.942;11.570;2023-03-03T04:40:09;97815.31;;;0.17;86.17
1371;BME280;14306;49.942;11.570;2023-03-03T04:42:37;97813.75;;;-0.02;86.39
1371;BME280;14306;49.942;11.570;2023-03-03T04:45:08;97801.06;;;0.00;86.39
1371;BME280;14306;49.942;11.570;2023-03-03T04:47:37;97808.88;;;-0.05;86.72
1371;BME280;14306;49.942;11.570;2023-03-03T04:50:07;97802.06;;;-0.13;86.76
1371;BME280;14306;49.942;11.570;2023-03-03T04:52:35;97802.81;;;-0.24;86.09
1371;BME280;14306;49.942;11.570;2023-03-03T04:55:04;97799.50;;;-0.19;86.75
1371;BME280;14306;49.942;11.570;2023-03-03T04:57:36;97807.09;;;-0.23;85.89
1371;BME280;14306;49.942;11.570;2023-03-03T05:00:07;97810.91;;;-0.30;86.85
1371;BME280;14306;49.942;11.570;2023-03-03T05:02:35;97810.03;;;-0.13;86.18
1371;BME280;14306;49.942;11.570;2023-03-03T05:05:04;97803.16;;;-0.20;86.37
1371;BME280;14306;49.942;11.570;2023-03-03T05:07:32;97812.38;;;-0.34;86.92
1371;BME280;14306;49.942;11.570;2023-03-03T05:10:01;97814.75;;;-0.44;86.94
1371;BME280;14306;49.942;11.570;2023-03-03T05:12:30;97815.72;;;-0.39;86.95
1371;BME280;14306;49.942;11.570;2023-03-03T05:14:58;97811.91;;;-0.31;86.71
1371;BME280;14306;49.942;11.570;2023-03-03T05:17:29;97803.38;;;-0.22;86.79
1371;BME280;14306;49.942;11.570;2023-03-03T05:19:57;97807.69;;;-0.21;86.97
1371;BME280;14306;49.942;11.570;2023-03-03T05:22:25;97808.94;;;-0.23;87.95
1371;BME280;14306;49.942;11.570;2023-03-03T05:24:54;97815.28;;;-0.24;87.03
1371;BME280;14306;49.942;11.570;2023-03-03T05:27:23;97823.06;;;-0.23;86.21
1371;BME280;14306;49.942;11.570;2023-03-03T05:29:51;97824.59;;;-0.15;86.68
1371;BME280;14306;49.942;11.570;2023-03-03T05:32:20;97828.56;;;-0.06;86.97
1371;BME280;14306;49.942;11.570;2023-03-03T05:34:50;97819.94;;;-0.20;87.01
1371;BME280;14306;49.942;11.570;2023-03-03T05:37:19;97814.03;;;-0.22;86.82
1371;BME280;14306;49.942;11.570;2023-03-03T05:39:47;97831.75;;;-0.16;86.88
1371;BME280;14306;49.942;11.570;2023-03-03T05:42:15;97802.34;;;-0.50;87.22
1371;BME280;14306;49.942;11.570;2023-03-03T05:44:44;97818.81;;;-0.42;87.59
1371;BME280;14306;49.942;11.570;2023-03-03T05:47:12;97823.47;;;-0.37;86.73
1371;BME280;14306;49.942;11.570;2023-03-03T05:49:40;97835.41;;;-0.28;87.08
1371;BME280;14306;49.942;11.570;2023-03-03T05:52:10;97831.03;;;-0.23;87.35
1371;BME280;14306;49.942;11.570;2023-03-03T05:54:39;97829.28;;;-0.29;87.15
1371;BME280;14306;49.942;11.570;2023-03-03T05:57:07;97820.41;;;-0.23;87.45
1371;BME280;14306;49.942;11.570;2023-03-03T05:59:36;97839.56;;;-0.32;87.48
1371;BME280;14306;49.942;11.570;2023-03-03T06:02:05;97842.19;;;-0.14;87.35
1371;BME280;14306;49.942;11.570;2023-03-03T06:04:33;97849.88;;;0.05;87.56
1371;BME280;14306;49.942;11.570;2023-03-03T06:07:02;97841.78;;;0.00;87.33
1371;BME280;14306;49.942;11.570;2023-03-03T06:09:32;97834.59;;;0.01;87.31
1371;BME280;14306;49.942;11.570;2023-03-03T06:12:00;97859.91;;;0.22;87.64
1371;BME280;14306;49.942;11.570;2023-03-03T06:14:29;97851.16;;;0.33;87.61
1371;BME280;14306;49.942;11.570;2023-03-03T06:16:58;97853.13;;;0.49;87.54
1371;BME280;14306;49.942;11.570;2023-03-03T06:19:26;97870.50;;;0.63;87.85
1371;BME280;14306;49.942;11.570;2023-03-03T06:21:56;97857.44;;;0.73;87.34
1371;BME280;14306;49.942;11.570;2023-03-03T06:24:26;97876.47;;;0.88;87.77
1371;BME280;14306;49.942;11.570;2023-03-03T06:26:59;97875.53;;;1.05;87.39
1371;BME280;14306;49.942;11.570;2023-03-03T06:29:28;97878.66;;;1.25;87.86
1371;BME280;14306;49.942;11.570;2023-03-03T06:31:57;97864.25;;;1.26;86.93
1371;BME280;14306;49.942;11.570;2023-03-03T06:34:27;97879.03;;;1.29;86.84
1371;BME280;14306;49.942;11.570;2023-03-03T06:36:55;97880.88;;;1.79;87.27
1371;BME280;14306;49.942;11.570;2023-03-03T06:39:28;97897.06;;;2.01;87.23
1371;BME280;14306;49.942;11.570;2023-03-03T06:42:00;97888.78;;;1.86;86.47
1371;BME280;14306;49.942;11.570;2023-03-03T06:44:29;97921.50;;;2.21;85.58
1371;BME280;14306;49.942;11.570;2023-03-03T06:46:57;97901.19;;;2.64;85.51
1371;BME280;14306;49.942;11.570;2023-03-03T06:49:26;97911.13;;;3.51;85.36
1371;BME280;14306;49.942;11.570;2023-03-03T06:51:55;97875.59;;;3.99;81.61
1371;BME280;14306;49.942;11.570;2023-03-03T06:59:41;97911.25;;;5.84;74.04
1371;BME280;14306;49.942;11.570;2023-03-03T07:02:15;97922.81;;;5.84;71.75
1371;BME280;14306;49.942;11.570;2023-03-03T07:04:44;97916.72;;;5.99;70.10
1371;BME280;14306;49.942;11.570;2023-03-03T07:07:17;97923.38;;;5.86;71.06
1371;BME280;14306;49.942;11.570;2023-03-03T07:09:48;97933.91;;;6.64;67.87
1371;BME280;14306;49.942;11.570;2023-03-03T07:12:19;97950.06;;;6.89;66.44
1371;BME280;14306;49.942;11.570;2023-03-03T07:14:55;97956.53;;;6.88;65.37
1371;BME280;14306;49.942;11.570;2023-03-03T07:17:25;97951.41;;;5.64;68.19
1371;BME280;14306;49.942;11.570;2023-03-03T07:19:54;97949.75;;;5.58;70.39
1371;BME280;14306;49.942;11.570;2023-03-03T07:22:24;97965.06;;;6.50;67.65
1371;BME280;14306;49.942;11.570;2023-03-03T07:24:58;97967.25;;;6.63;65.97
1371;BME280;14306;49.942;11.570;2023-03-03T07:27:30;97967.09;;;6.18;67.70
1371;BME280;14306;49.942;11.570;2023-03-03T07:30:16;97963.00;;;5.69;69.19
1371;BME280;14306;49.942;11.570;2023-03-03T07:32:51;97955.72;;;5.28;71.56
1371;BME280;14306;49.942;11.570;2023-03-03T07:35:35;97989.91;;;6.77;65.93
1371;BME280;14306;49.942;11.570;2023-03-03T07:38:25;97997.50;;;7.20;65.28
1371;BME280;14306;49.942;11.570;2023-03-03T07:40:59;97998.75;;;8.48;61.89
1371;BME280;14306;49.942;11.570;2023-03-03T07:43:34;97989.41;;;8.05;61.84
1371;BME280;14306;49.942;11.570;2023-03-03T07:46:28;98011.78;;;9.33;58.92
1371;BME280;14306;49.942;11.570;2023-03-03T07:49:00;98010.34;;;10.13;54.39
1371;BME280;14306;49.942;11.570;2023-03-03T07:51:36;97991.59;;;8.77;58.64
1371;BME280;14306;49.942;11.570;2023-03-03T07:54:27;98044.25;;;11.41;52.16
1371;BME280;14306;49.942;11.570;2023-03-03T07:57:01;98043.19;;;11.19;51.58
1371;BME280;14306;49.942;11.570;2023-03-03T07:59:36;98081.78;;;12.22;48.98
1371;BME280;14306;49.942;11.570;2023-03-03T08:02:34;98034.03;;;11.15;51.04
1371;BME280;14306;49.942;11.570;2023-03-03T08:05:30;98035.03;;;10.82;50.06
1371;BME280;14306;49.942;11.570;2023-03-03T08:08:13;98003.84;;;9.08;55.20
1371;BME280;14306;49.942;11.570;2023-03-03T08:10:47;97991.06;;;7.86;57.85
1371;BME280;14306;49.942;11.570;2023-03-03T08:13:17;97976.00;;;7.60;58.60
1371;BME280;14306;49.942;11.570;2023-03-03T08:15:49;97967.22;;;6.58;61.94
1371;BME280;14306;49.942;11.570;2023-03-03T08:18:27;97986.84;;;6.44;62.65
1371;BME280;14306;49.942;11.570;2023-03-03T08:20:59;97965.25;;;6.34;62.90
1371;BME280;14306;49.942;11.570;2023-03-03T08:23:30;97959.94;;;6.54;62.94
1371;BME280;14306;49.942;11.570;2023-03-03T08:25:59;97969.72;;;6.75;62.33
1371;BME280;14306;49.942;11.570;2023-03-03T08:28:28;97985.66;;;7.91;59.37
1371;BME280;14306;49.942;11.570;2023-03-03T08:30:57;98035.34;;;10.28;53.48
1371;BME280;14306;49.942;11.570;2023-03-03T08:33:47;98069.53;;;12.25;49.34
1371;BME280;14306;49.942;11.570;2023-03-03T08:36:16;98071.50;;;12.65;47.54
1371;BME280;14306;49.942;11.570;2023-03-03T08:38:45;98097.31;;;13.35;44.92
1371;BME280;14306;49.942;11.570;2023-03-03T08:41:14;98100.03;;;13.84;43.90
1371;BME280;14306;49.942;11.570;2023-03-03T08:43:43;98081.50;;;13.37;45.38
1371;BME280;14306;49.942;11.570;2023-03-03T08:46:12;98094.84;;;14.18;43.17
1371;BME280;14306;49.942;11.570;2023-03-03T08:48:40;98108.97;;;14.42;41.71
1371;BME280;14306;49.942;11.570;2023-03-03T08:51:10;98109.16;;;15.06;40.46
1371;BME280;14306;49.942;11.570;2023-03-03T08:53:39;98116.88;;;15.52;39.86
1371;BME280;14306;49.942;11.570;2023-03-03T08:56:09;98107.22;;;15.07;40.55
1371;BME280;14306;49.942;11.570;2023-03-03T08:58:37;98101.09;;;15.01;40.45
1371;BME280;14306;49.942;11.570;2023-03-03T09:01:25;98094.41;;;14.46;41.16
1371;BME280;14306;49.942;11.570;2023-03-03T09:03:54;98124.44;;;15.72;37.76
1371;BME280;14306;49.942;11.570;2023-03-03T09:06:25;98136.09;;;16.03;37.25
1371;BME280;14306;49.942;11.570;2023-03-03T09:08:53;98118.94;;;15.46;39.28
1371;BME280;14306;49.942;11.570;2023-03-03T09:11:24;98161.91;;;16.91;36.33
1371;BME280;14306;49.942;11.570;2023-03-03T09:14:01;98155.75;;;17.02;34.88
1371;BME280;14306;49.942;11.570;2023-03-03T09:16:44;98165.63;;;17.32;35.08
1371;BME280;14306;49.942;11.570;2023-03-03T09:19:19;98117.06;;;15.64;37.03
1371;BME280;14306;49.942;11.570;2023-03-03T09:21:50;98142.00;;;15.80;39.61
1371;BME280;14306;49.942;11.570;2023-03-03T09:24:25;98144.56;;;16.70;36.13
1371;BME280;14306;49.942;11.570;2023-03-03T09:26:56;98120.44;;;15.13;39.99
1371;BME280;14306;49.942;11.570;2023-03-03T09:29:26;98155.53;;;16.44;35.92
1371;BME280;14306;49.942;11.570;2023-03-03T09:31:57;98114.03;;;15.26;37.51
1371;BME280;14306;49.942;11.570;2023-03-03T09:34:37;98130.41;;;15.26;37.68
1371;BME280;14306;49.942;11.570;2023-03-03T09:37:20;98125.38;;;14.72;38.92
1371;BME280;14306;49.942;11.570;2023-03-03T09:39:50;98114.50;;;14.28;40.16
1371;BME280;14306;49.942;11.570;2023-03-03T09:42:46;98095.69;;;12.80;42.23
1371;BME280;14306;49.942;11.570;2023-03-03T09:45:35;98069.59;;;11.50;44.78
1371;BME280;14306;49.942;11.570;2023-03-03T09:48:24;98081.44;;;11.78;44.35
1371;BME280;14306;49.942;11.570;2023-03-03T09:51:08;98064.19;;;11.32;45.81
1371;BME280;14306;49.942;11.570;2023-03-03T09:53:52;98067.09;;;11.17;45.79
1371;BME280;14306;49.942;11.570;2023-03-03T09:56:24;98021.28;;;9.98;48.60
1371;BME280;14306;49.942;11.570;2023-03-03T09:59:07;98050.47;;;10.58;48.99
1371;BME280;14306;49.942;11.570;2023-03-03T10:01:51;98024.72;;;9.41;51.24
1371;BME280;14306;49.942;11.570;2023-03-03T10:04:35;98029.81;;;9.48;51.42
1371;BME280;14306;49.942;11.570;2023-03-03T10:07:27;98016.34;;;8.99;52.68
1371;BME280;14306;49.942;11.570;2023-03-03T10:13:13;98014.19;;;8.23;54.99
1371;BME280;14306;49.942;11.570;2023-03-03T10:15:52;97996.00;;;8.53;54.56
1371;BME280;14306;49.942;11.570;2023-03-03T10:18:29;98004.81;;;7.65;56.16
1371;BME280;14306;49.942;11.570;2023-03-03T10:21:06;98013.19;;;7.53;56.89
1371;BME280;14306;49.942;11.570;2023-03-03T10:23:51;98007.78;;;7.33;57.98
1371;BME280;14306;49.942;11.570;2023-03-03T10:26:47;98005.09;;;7.58;57.65
1371;BME280;14306;49.942;11.570;2023-03-03T10:29:43;98002.94;;;7.65;57.46
1371;BME280;14306;49.942;11.570;2023-03-03T10:32:42;98001.59;;;7.73;57.25
1371;BME280;14306;49.942;11.570;2023-03-03T10:35:24;98004.53;;;7.66;57.13
1371;BME280;14306;49.942;11.570;2023-03-03T10:38:13;98006.44;;;7.81;56.57
1371;BME280;14306;49.942;11.570;2023-03-03T10:40:49;98022.28;;;8.23;55.60
1371;BME280;14306;49.942;11.570;2023-03-03T10:43:35;98008.59;;;7.59;56.98
1371;BME280;14306;49.942;11.570;2023-03-03T10:46:43;98004.53;;;7.46;56.99
1371;BME280;14306;49.942;11.570;2023-03-03T10:49:35;97989.19;;;7.47;57.16
1371;BME280;14306;49.942;11.570;2023-03-03T10:52:20;98013.16;;;7.83;55.93
1371;BME280;14306;49.942;11.570;2023-03-03T10:57:47;98011.22;;;8.19;55.42
1371;BME280;14306;49.942;11.570;2023-03-03T11:00:24;98004.00;;;7.74;55.77
1371;BME280;14306;49.942;11.570;2023-03-03T11:05:58;98003.75;;;7.56;56.05
1371;BME280;14306;49.942;11.570;2023-03-03T11:08:32;98003.75;;;7.81;55.43
1371;BME280;14306;49.942;11.570;2023-03-03T11:11:08;97994.03;;;7.85;54.77
1371;BME280;14306;49.942;11.570;2023-03-03T11:13:47;98020.88;;;8.50;53.57
1371;BME280;14306;49.942;11.570;2023-03-03T11:16:40;97989.63;;;8.14;53.45
1371;BME280;14306;49.942;11.570;2023-03-03T11:19:44;98010.44;;;8.13;54.27
1371;BME280;14306;49.942;11.570;2023-03-03T11:22:26;97982.66;;;8.23;53.83
1371;BME280;14306;49.942;11.570;2023-03-03T11:25:08;97993.03;;;8.60;52.87
1371;BME280;14306;49.942;11.570;2023-03-03T11:27:57;98000.66;;;8.43;54.22
1371;BME280;14306;49.942;11.570;2023-03-03T11:30:36;97988.31;;;8.11;55.66
1371;BME280;14306;49.942;11.570;2023-03-03T11:33:14;97976.97;;;8.14;56.13
1371;BME280;14306;49.942;11.570;2023-03-03T11:35:48;97992.59;;;8.28;55.91
1371;BME280;14306;49.942;11.570;2023-03-03T11:38:31;97956.50;;;8.03;55.15
1371;BME280;14306;49.942;11.570;2023-03-03T11:41:07;97985.25;;;8.48;54.10
1371;BME280;14306;49.942;11.570;2023-03-03T11:43:44;97963.44;;;8.19;54.73
1371;BME280;14306;49.942;11.570;2023-03-03T11:46:19;97966.72;;;8.11;55.35
1371;BME280;14306;49.942;11.570;2023-03-03T11:48:58;97948.78;;;7.47;56.69
1371;BME280;14306;49.942;11.570;2023-03-03T11:51:35;97951.41;;;7.92;54.42
1371;BME280;14306;49.942;11.570;2023-03-03T11:54:12;97936.28;;;7.91;54.86
1371;BME280;14306;49.942;11.570;2023-03-03T11:56:45;97946.25;;;8.00;53.99
1371;BME280;14306;49.942;11.570;2023-03-03T12:03:07;97945.66;;;8.24;53.87
1371;BME280;14306;49.942;11.570;2023-03-03T12:05:47;97955.09;;;8.31;54.30
1371;BME280;14306;49.942;11.570;2023-03-03T12:11:27;97945.41;;;8.15;54.71
1371;BME280;14306;49.942;11.570;2023-03-03T12:14:03;97952.03;;;8.53;53.83
1371;BME280;14306;49.942;11.570;2023-03-03T12:16:44;97947.56;;;8.13;55.27
1371;BME280;14306;49.942;11.570;2023-03-03T12:19:26;97962.84;;;8.48;54.32
1371;BME280;14306;49.942;11.570;2023-03-03T12:25:04;97962.13;;;8.27;54.37
1371;BME280;14306;49.942;11.570;2023-03-03T12:27:40;97948.34;;;8.18;54.71
1371;BME280;14306;49.942;11.570;2023-03-03T12:30:23;97925.81;;;7.84;54.93
1371;BME280;14306;49.942;11.570;2023-03-03T12:33:06;97934.41;;;7.91;55.59
1371;BME280;14306;49.942;11.570;2023-03-03T12:35:42;97953.56;;;7.90;54.84
1371;BME280;14306;49.942;11.570;2023-03-03T12:38:28;97938.44;;;7.94;55.24
1371;BME280;14306;49.942;11.570;2023-03-03T12:41:07;97928.09;;;8.36;54.16
1371;BME280;14306;49.942;11.570;2023-03-03T12:43:51;97927.88;;;8.23;54.65
1371;BME280;14306;49.942;11.570;2023-03-03T12:46:29;97897.41;;;8.07;54.36
1371;BME280;14306;49.942;11.570;2023-03-03T12:49:01;97931.56;;;8.42;53.30
1371;BME280;14306;49.942;11.570;2023-03-03T12:51:46;97905.19;;;8.24;53.94
1371;BME280;14306;49.942;11.570;2023-03-03T12:54:35;97940.38;;;8.62;53.99
1371;BME280;14306;49.942;11.570;2023-03-03T12:57:18;97932.66;;;8.36;54.22
1371;BME280;14306;49.942;11.570;2023-03-03T13:00:00;97898.22;;;8.07;53.80
1371;BME280;14306;49.942;11.570;2023-03-03T13:02:42;97935.91;;;8.38;53.39
1371;BME280;14306;49.942;11.570;2023-03-03T13:05:26;97928.66;;;8.18;53.31
1371;BME280;14306;49.942;11.570;2023-03-03T13:08:24;97930.53;;;8.33;53.19
1371;BME280;14306;49.942;11.570;2023-03-03T13:13:52;97930.56;;;8.12;53.47
1371;BME280;14306;49.942;11.570;2023-03-03T13:16:28;97927.78;;;8.48;52.69
1371;BME280;14306;49.942;11.570;2023-03-03T13:19:10;97894.78;;;7.87;54.55
1371;BME280;14306;49.942;11.570;2023-03-03T13:21:47;97920.19;;;8.50;53.52
1371;BME280;14306;49.942;11.570;2023-03-03T13:24:20;97921.66;;;8.17;53.30
1371;BME280;14306;49.942;11.570;2023-03-03T13:26:55;97931.63;;;8.27;53.53
1371;BME280;14306;49.942;11.570;2023-03-03T13:29:28;97918.47;;;7.95;52.92
1371;BME280;14306;49.942;11.570;2023-03-03T13:32:01;97907.25;;;7.73;53.65
1371;BME280;14306;49.942;11.570;2023-03-03T13:34:38;97942.31;;;7.58;54.56
1371;BME280;14306;49.942;11.570;2023-03-03T13:37:13;97894.56;;;7.73;54.49
1371;BME280;14306;49.942;11.570;2023-03-03T13:39:54;97900.47;;;7.70;54.23
1371;BME280;14306;49.942;11.570;2023-03-03T13:42:31;97902.94;;;7.67;54.34
1371;BME280;14306;49.942;11.570;2023-03-03T13:45:13;97909.97;;;7.43;54.46
1371;BME280;14306;49.942;11.570;2023-03-03T13:47:47;97896.78;;;7.41;54.58
1371;BME280;14306;49.942;11.570;2023-03-03T13:50:24;97900.78;;;7.59;54.99
1371;BME280;14306;49.942;11.570;2023-03-03T13:53:17;97895.94;;;7.46;53.97
1371;BME280;14306;49.942;11.570;2023-03-03T13:55:57;97884.41;;;7.25;55.33
1371;BME280;14306;49.942;11.570;2023-03-03T13:58:36;97875.50;;;7.30;54.64
1371;BME280;14306;49.942;11.570;2023-03-03T14:01:14;97858.28;;;7.31;53.94
1371;BME280;14306;49.942;11.570;2023-03-03T14:03:54;97898.13;;;7.19;54.44
1371;BME280;14306;49.942;11.570;2023-03-03T14:06:28;97869.56;;;7.38;54.65
1371;BME280;14306;49.942;11.570;2023-03-03T14:09:08;97859.09;;;7.21;54.71
1371;BME280;14306;49.942;11.570;2023-03-03T14:11:45;97900.56;;;7.25;55.33